Time;durP1;ratioP1;P1;durP2;ratioP2;P2;SDS_P1;SDS_P2;PMS_P1;PMS_P2;Temp;Humidity;BMP_temperature;BMP_pressure;BME280_temperature;BME280_humidity;BME280_pressure;Samples;Min_cycle;Max_cycle;Signal;HPM_P1;HPM_P2
2023/03/16 00:01:56;;;;;;;1.70;0.70;;;;;;;7.46;49.36;100468.34;5022198;28;20387;-76
2023/03/16 00:04:22;;;;;;;2.60;0.70;;;;;;;7.61;49.28;100473.84;5023569;28;20400;-76
2023/03/16 00:06:47;;;;;;;1.93;0.80;;;;;;;7.61;49.20;100470.41;5019654;28;20483;-76
2023/03/16 00:09:13;;;;;;;2.40;0.60;;;;;;;7.08;50.29;100478.28;5015012;28;20980;-77
2023/03/16 00:11:38;;;;;;;0.67;0.50;;;;;;;7.21;50.05;100475.25;5012147;28;20458;-76
2023/03/16 00:14:04;;;;;;;0.75;0.55;;;;;;;7.24;49.92;100474.97;5010453;28;20506;-77
2023/03/16 00:16:30;;;;;;;1.13;0.50;;;;;;;7.02;50.65;100471.00;5010398;28;20388;-77
2023/03/16 00:18:57;;;;;;;1.73;0.60;;;;;;;6.97;50.60;100477.69;5008923;28;20432;-77
2023/03/16 00:21:23;;;;;;;1.23;0.60;;;;;;;6.91;50.84;100468.59;5024960;28;20396;-76
2023/03/16 00:23:48;;;;;;;2.67;0.67;;;;;;;6.93;50.80;100476.34;5010741;28;20479;-76
2023/03/16 00:26:14;;;;;;;2.70;0.80;;;;;;;6.89;51.24;100481.09;5010769;28;20763;-76
2023/03/16 00:28:41;;;;;;;1.73;0.70;;;;;;;7.05;50.68;100489.13;5010843;28;20420;-76
2023/03/16 00:31:10;;;;;;;1.10;0.80;;;;;;;7.12;50.20;100499.91;5010132;28;20400;-76
2023/03/16 00:33:41;;;;;;;0.80;0.60;;;;;;;7.07;50.38;100499.53;5009722;28;20411;-76
2023/03/16 00:36:08;;;;;;;0.82;0.47;;;;;;;6.99;50.53;100496.84;5009207;28;20454;-77
2023/03/16 00:38:39;;;;;;;2.47;0.55;;;;;;;7.10;50.22;100512.41;5011980;28;20392;-78
2023/03/16 00:41:07;;;;;;;1.20;0.60;;;;;;;7.18;49.90;100509.00;5009003;28;20946;-77
2023/03/16 00:43:42;;;;;;;0.85;0.40;;;;;;;7.04;50.10;100513.00;5011028;28;20891;-77
2023/03/16 00:46:10;;;;;;;4.00;0.63;;;;;;;7.19;49.84;100518.59;5008528;28;20519;-77
2023/03/16 00:48:41;;;;;;;0.63;0.45;;;;;;;7.11;49.89;100521.13;5010478;28;20455;-77
2023/03/16 00:51:11;;;;;;;4.57;0.90;;;;;;;6.95;50.47;100521.81;5010715;28;20470;-77
2023/03/16 00:53:38;;;;;;;3.10;0.70;;;;;;;7.29;49.57;100532.47;5010509;28;20428;-77
2023/03/16 00:56:05;;;;;;;1.15;0.60;;;;;;;7.28;49.58;100526.38;5008454;28;20408;-77
2023/03/16 00:58:35;;;;;;;0.98;0.65;;;;;;;7.08;49.98;100536.28;5010314;28;20450;-77
2023/03/16 01:01:21;;;;;;;1.98;0.85;;;;;;;6.91;50.29;100526.56;5010726;28;20479;-77
2023/03/16 01:03:47;;;;;;;3.55;1.77;;;;;;;7.12;50.04;100533.34;5009571;28;20466;-76
2023/03/16 01:06:15;;;;;;;1.20;0.70;;;;;;;7.13;50.00;100537.63;5010418;28;20403;-77
2023/03/16 01:08:42;;;;;;;2.13;1.27;;;;;;;7.17;49.92;100539.00;5010559;28;20857;-76
2023/03/16 01:11:11;;;;;;;2.35;0.80;;;;;;;7.25;49.52;100533.78;5010717;28;20398;-77
2023/03/16 01:13:38;;;;;;;3.78;0.77;;;;;;;7.26;49.64;100535.44;5010028;28;20448;-76
2023/03/16 01:16:04;;;;;;;1.67;0.80;;;;;;;7.36;49.62;100533.53;5010833;28;20442;-76
2023/03/16 01:18:33;;;;;;;1.42;0.75;;;;;;;7.40;49.45;100526.13;5008931;28;20495;-77
2023/03/16 01:21:00;;;;;;;1.45;0.60;;;;;;;7.24;49.77;100537.41;5010285;28;20407;-76
2023/03/16 01:23:29;;;;;;;1.67;0.82;;;;;;;7.10;50.22;100533.50;5010635;28;20432;-77
2023/03/16 01:25:55;;;;;;;1.33;0.70;;;;;;;7.09;49.99;100545.00;5010660;28;20428;-77
2023/03/16 01:28:24;;;;;;;1.73;0.63;;;;;;;6.99;50.14;100541.63;5023862;28;20431;-76
2023/03/16 01:30:57;;;;;;;2.30;0.80;;;;;;;7.02;50.36;100544.81;5033261;28;20442;-76
2023/03/16 01:33:25;;;;;;;1.98;0.60;;;;;;;7.15;50.56;100552.31;5032100;28;20467;-77
2023/03/16 01:36:03;;;;;;;1.35;0.57;;;;;;;7.34;49.72;100547.84;5023560;28;20869;-77
2023/03/16 01:38:28;;;;;;;1.33;0.70;;;;;;;7.22;50.08;100553.38;5008482;28;20807;-77
2023/03/16 01:40:54;;;;;;;1.70;0.60;;;;;;;7.16;50.04;100548.69;5010008;28;20911;-77
2023/03/16 01:43:23;;;;;;;2.50;0.80;;;;;;;6.93;50.42;100560.66;5009606;28;20403;-77
2023/03/16 01:46:03;;;;;;;0.95;0.70;;;;;;;7.00;50.51;100553.81;5009964;28;20396;-77
2023/03/16 01:48:52;;;;;;;1.13;0.57;;;;;;;6.91;50.81;100565.25;5009951;28;20408;-77
2023/03/16 01:51:21;;;;;;;0.80;0.50;;;;;;;6.73;51.11;100559.97;5013909;28;20395;-77
2023/03/16 01:53:51;;;;;;;1.50;0.60;;;;;;;6.69;51.35;100555.00;5009975;28;20396;-78
2023/03/16 01:56:24;;;;;;;1.13;0.60;;;;;;;6.74;51.04;100561.66;5009718;28;20799;-77
2023/03/16 01:58:52;;;;;;;1.30;0.70;;;;;;;6.93;50.98;100569.41;5009606;28;20400;-77
2023/03/16 02:01:18;;;;;;;2.05;0.70;;;;;;;6.96;50.61;100569.09;5008795;28;20730;-77
2023/03/16 02:03:44;;;;;;;1.80;0.77;;;;;;;6.96;50.69;100579.66;5009744;28;20453;-77
2023/03/16 02:06:14;;;;;;;1.35;0.63;;;;;;;6.84;50.77;100576.41;5009706;28;20391;-77
2023/03/16 02:08:44;;;;;;;2.03;0.82;;;;;;;6.67;51.27;100587.75;5007313;28;20426;-77
2023/03/16 02:11:10;;;;;;;1.88;0.85;;;;;;;6.86;51.33;100598.16;5008888;28;20757;-77
2023/03/16 02:13:35;;;;;;;1.00;0.70;;;;;;;6.80;51.24;100597.94;5009464;28;20450;-77
2023/03/16 02:16:07;;;;;;;2.00;0.80;;;;;;;6.75;51.17;100600.16;5009339;28;21375;-77
2023/03/16 02:18:34;;;;;;;1.10;0.60;;;;;;;6.66;51.33;100602.72;5009968;28;20396;-77
2023/03/16 02:21:24;;;;;;;1.15;0.60;;;;;;;6.63;51.65;100613.56;5006761;28;21104;-77
2023/03/16 02:23:50;;;;;;;0.90;0.50;;;;;;;6.51;51.92;100614.72;5009017;28;20404;-77
2023/03/16 02:26:47;;;;;;;1.00;0.60;;;;;;;6.59;51.37;100609.56;5009385;28;20396;-77
2023/03/16 02:29:21;;;;;;;1.40;0.70;;;;;;;6.67;51.38;100622.81;5010097;28;20415;-77
2023/03/16 02:31:47;;;;;;;1.48;0.60;;;;;;;6.70;51.59;100614.63;5009243;28;20483;-77
2023/03/16 02:34:15;;;;;;;0.83;0.67;;;;;;;6.64;51.44;100620.47;5009559;28;20849;-76
2023/03/16 02:36:44;;;;;;;1.70;1.13;;;;;;;6.45;51.54;100620.56;5007027;28;20388;-76
2023/03/16 02:39:10;;;;;;;1.42;0.80;;;;;;;6.47;51.58;100627.34;5008597;28;20463;-76
2023/03/16 02:41:35;;;;;;;1.10;0.70;;;;;;;6.42;51.78;100621.69;5008565;28;20467;-77
2023/03/16 02:44:05;;;;;;;1.70;0.60;;;;;;;6.39;52.07;100637.78;5009398;28;20388;-77
2023/03/16 02:46:34;;;;;;;1.40;0.90;;;;;;;6.40;52.11;100622.81;5008476;28;20391;-77
2023/03/16 02:49:09;;;;;;;0.77;0.50;;;;;;;6.41;51.97;100632.34;5007228;28;20399;-77
2023/03/16 02:51:35;;;;;;;2.00;0.77;;;;;;;6.57;51.82;100634.38;5009311;28;20396;-77
2023/03/16 02:54:00;;;;;;;1.60;0.70;;;;;;;6.60;51.46;100649.88;5009153;28;20379;-77
2023/03/16 02:56:26;;;;;;;1.70;0.90;;;;;;;6.58;51.49;100638.69;5009513;28;20491;-77
2023/03/16 02:58:51;;;;;;;0.90;0.55;;;;;;;6.64;51.49;100645.97;5009550;28;20467;-78
2023/03/16 03:01:17;;;;;;;2.40;1.20;;;;;;;6.66;51.14;100654.56;5009661;28;20500;-77
2023/03/16 03:03:42;;;;;;;2.30;1.10;;;;;;;6.73;51.13;100658.28;5009655;28;20883;-77
2023/03/16 03:06:08;;;;;;;1.60;0.80;;;;;;;6.71;51.04;100647.06;5010411;28;20548;-77
2023/03/16 03:08:34;;;;;;;1.40;0.80;;;;;;;6.68;50.86;100656.09;5010057;28;20404;-77
2023/03/16 03:11:00;;;;;;;1.33;0.60;;;;;;;6.45;51.37;100660.06;5011057;28;20403;-77
2023/03/16 03:13:25;;;;;;;1.38;0.85;;;;;;;6.64;51.01;100659.97;5013192;28;20981;-77
2023/03/16 03:15:51;;;;;;;1.67;0.90;;;;;;;6.66;50.91;100657.19;5012758;28;21665;-77
2023/03/16 03:18:18;;;;;;;2.55;0.60;;;;;;;6.61;50.84;100652.38;5013284;28;20412;-76
2023/03/16 03:20:43;;;;;;;1.77;1.30;;;;;;;6.58;51.23;100662.38;5013016;28;20380;-77
2023/03/16 03:23:09;;;;;;;1.40;0.60;;;;;;;6.46;51.72;100673.09;5013066;28;20450;-77
2023/03/16 03:25:35;;;;;;;1.57;0.80;;;;;;;6.48;51.33;100668.53;5012563;28;20482;-76
2023/03/16 03:28:02;;;;;;;1.67;0.80;;;;;;;6.62;51.17;100674.28;5013251;28;20439;-77
2023/03/16 03:30:27;;;;;;;1.17;0.60;;;;;;;6.36;51.93;100682.00;5012895;28;20817;-76
2023/03/16 03:32:53;;;;;;;1.07;0.50;;;;;;;6.51;51.50;100693.72;5013225;28;20596;-76
2023/03/16 03:35:20;;;;;;;3.05;0.90;;;;;;;6.56;51.04;100693.31;5013640;28;20483;-76
2023/03/16 03:37:46;;;;;;;1.52;0.63;;;;;;;6.52;51.38;100698.03;5014101;28;20907;-76
2023/03/16 03:40:13;;;;;;;1.23;0.70;;;;;;;6.58;51.07;100707.16;5013355;28;20466;-76
2023/03/16 03:42:40;;;;;;;0.95;0.50;;;;;;;6.60;50.88;100703.38;5011825;28;20388;-76
2023/03/16 03:45:06;;;;;;;1.00;0.60;;;;;;;6.58;50.91;100702.72;5012536;28;20424;-77
2023/03/16 03:47:32;;;;;;;1.42;0.57;;;;;;;6.55;51.15;100710.88;5012681;28;20412;-77
2023/03/16 03:49:57;;;;;;;1.63;0.75;;;;;;;6.63;50.85;100708.38;5012547;28;20732;-77
2023/03/16 03:52:23;;;;;;;1.20;0.90;;;;;;;6.73;50.80;100703.06;5012832;28;20392;-77
2023/03/16 03:54:48;;;;;;;1.40;1.10;;;;;;;6.70;50.39;100719.19;5013223;28;20384;-77
2023/03/16 03:57:14;;;;;;;0.90;0.50;;;;;;;6.69;50.42;100713.06;5011613;28;20380;-77
2023/03/16 03:59:42;;;;;;;1.13;0.77;;;;;;;6.56;50.88;100715.19;5012652;28;20933;-77
2023/03/16 04:02:12;;;;;;;1.42;1.10;;;;;;;6.73;50.80;100718.03;5012533;28;20399;-77
2023/03/16 04:04:38;;;;;;;1.08;0.52;;;;;;;6.72;51.00;100722.50;5013369;28;20388;-77
2023/03/16 04:07:05;;;;;;;0.90;0.50;;;;;;;6.69;50.94;100728.03;5013463;28;20411;-76
2023/03/16 04:09:35;;;;;;;1.08;0.50;;;;;;;6.57;51.29;100727.41;5013190;28;20388;-77
2023/03/16 04:12:01;;;;;;;1.17;0.50;;;;;;;6.47;51.62;100722.16;5013005;28;20420;-76
2023/03/16 04:14:27;;;;;;;0.75;0.50;;;;;;;6.48;51.42;100713.28;5012334;28;20380;-76
2023/03/16 04:16:53;;;;;;;0.95;0.60;;;;;;;6.46;51.56;100720.50;5012660;28;20877;-76
2023/03/16 04:19:20;;;;;;;0.77;0.50;;;;;;;6.41;51.79;100728.00;5012660;28;20449;-77
2023/03/16 04:21:45;;;;;;;1.17;0.60;;;;;;;6.45;51.48;100734.63;5012237;28;20399;-77
2023/03/16 04:24:13;;;;;;;2.23;0.67;;;;;;;6.53;51.48;100735.72;5012415;28;20392;-77
2023/03/16 04:26:46;;;;;;;1.38;1.08;;;;;;;6.66;51.00;100734.44;5012141;28;20380;-77
2023/03/16 04:29:16;;;;;;;1.90;1.13;;;;;;;6.79;50.81;100743.78;5012380;28;20815;-76
2023/03/16 04:31:42;;;;;;;2.80;1.80;;;;;;;6.95;50.17;100745.81;5013016;28;20407;-77
2023/03/16 04:34:08;;;;;;;2.70;1.40;;;;;;;6.89;50.47;100749.88;5012297;28;20400;-77
2023/03/16 04:36:33;;;;;;;1.88;1.35;;;;;;;6.88;50.32;100758.75;5011064;28;20385;-76
2023/03/16 04:38:59;;;;;;;1.97;1.50;;;;;;;6.88;50.00;100750.84;5000256;28;20845;-76
2023/03/16 04:41:25;;;;;;;4.90;2.20;;;;;;;6.84;49.95;100746.84;5011846;28;20384;-76
2023/03/16 04:43:51;;;;;;;3.90;1.80;;;;;;;6.94;50.02;100765.25;5010996;28;20380;-76
2023/03/16 04:46:17;;;;;;;4.67;2.60;;;;;;;6.93;50.40;100755.69;5011103;28;20419;-76
2023/03/16 04:48:42;;;;;;;6.85;2.40;;;;;;;6.91;49.81;100761.09;5011238;28;20400;-76
2023/03/16 04:51:08;;;;;;;7.40;3.53;;;;;;;6.93;50.10;100764.41;5010950;28;20392;-77
2023/03/16 04:53:33;;;;;;;4.20;2.30;;;;;;;6.91;49.72;100766.34;5011583;28;20410;-76
2023/03/16 04:55:59;;;;;;;4.78;3.05;;;;;;;6.79;49.89;100763.09;5011437;28;21149;-77
2023/03/16 04:58:24;;;;;;;12.45;7.88;;;;;;;6.84;50.05;100760.00;5008975;28;20910;-76
2023/03/16 05:00:56;;;;;;;12.70;10.00;;;;;;;7.00;49.66;100764.66;5010894;28;20887;-76
2023/03/16 05:03:22;;;;;;;6.32;4.50;;;;;;;7.04;49.35;100763.38;5011375;28;20891;-77
2023/03/16 05:05:49;;;;;;;4.07;2.90;;;;;;;7.09;49.27;100774.31;5010434;28;20384;-75
2023/03/16 05:08:14;;;;;;;3.72;2.25;;;;;;;7.05;49.20;100763.25;5011110;28;20419;-77
2023/03/16 05:10:40;;;;;;;5.40;2.80;;;;;;;6.97;49.64;100767.56;5012096;28;20391;-77
2023/03/16 05:13:06;;;;;;;10.70;5.60;;;;;;;7.02;49.17;100771.47;5022293;28;20431;-78
2023/03/16 05:15:32;;;;;;;6.50;3.50;;;;;;;6.86;49.06;100769.44;5034694;28;20440;-77
2023/03/16 05:18:00;;;;;;;5.55;3.13;;;;;;;6.80;49.57;100766.53;5031762;28;20439;-77
2023/03/16 05:20:26;;;;;;;4.00;2.42;;;;;;;6.62;49.38;100759.38;5030642;28;20396;-77
2023/03/16 05:22:51;;;;;;;4.03;2.55;;;;;;;6.58;50.06;100765.91;5013467;28;20793;-78
2023/03/16 05:25:18;;;;;;;5.57;2.47;;;;;;;6.55;50.06;100775.91;5012814;28;20579;-77
2023/03/16 05:27:45;;;;;;;3.17;1.60;;;;;;;6.65;49.56;100780.19;5028447;28;20403;-78
2023/03/16 05:30:12;;;;;;;2.13;1.40;;;;;;;6.61;49.62;100781.44;5012194;28;20407;-76
2023/03/16 05:32:38;;;;;;;4.60;1.60;;;;;;;6.78;49.45;100781.66;4998445;28;20461;-78
2023/03/16 05:35:04;;;;;;;2.10;1.52;;;;;;;6.86;48.89;100784.41;5015878;28;20396;-77
2023/03/16 05:37:30;;;;;;;2.40;1.38;;;;;;;6.87;48.74;100784.25;5013052;28;20400;-78
2023/03/16 05:39:57;;;;;;;3.20;1.58;;;;;;;6.88;48.74;100787.75;5016436;28;20392;-77
2023/03/16 05:42:23;;;;;;;1.83;1.38;;;;;;;7.03;48.43;100796.00;5000081;28;20411;-77
2023/03/16 05:44:48;;;;;;;3.20;1.70;;;;;;;7.22;48.06;100801.19;5010295;28;20419;-77
2023/03/16 05:47:14;;;;;;;1.80;1.30;;;;;;;7.04;48.08;100810.84;5026577;28;20832;-77
2023/03/16 05:49:39;;;;;;;3.53;1.37;;;;;;;7.07;48.45;100816.66;5016012;28;20835;-77
2023/03/16 05:52:05;;;;;;;4.33;2.20;;;;;;;7.26;47.68;100813.09;5010651;28;20387;-77
2023/03/16 05:54:30;;;;;;;3.37;1.90;;;;;;;7.14;47.91;100814.28;5011551;28;20932;-77
2023/03/16 05:56:56;;;;;;;6.07;3.23;;;;;;;7.16;47.96;100820.22;5011350;28;20401;-77
2023/03/16 05:59:21;;;;;;;6.60;4.13;;;;;;;7.34;47.71;100817.66;5011866;28;20418;-77
2023/03/16 06:01:49;;;;;;;3.80;2.20;;;;;;;7.42;47.50;100817.75;4988514;28;20464;-78
2023/03/16 06:04:14;;;;;;;5.25;3.03;;;;;;;7.37;47.32;100824.44;5012591;28;20434;-78
2023/03/16 06:06:40;;;;;;;5.90;3.10;;;;;;;7.34;47.42;100816.81;5032536;28;20409;-76
2023/03/16 06:09:06;;;;;;;6.63;2.92;;;;;;;7.26;47.40;100817.56;5031588;28;21229;-76
2023/03/16 06:11:32;;;;;;;2.40;1.00;;;;;;;7.08;47.65;100826.22;5031949;28;20851;-78
2023/03/16 06:13:59;;;;;;;1.92;1.17;;;;;;;7.00;47.65;100815.56;5030625;28;20386;-78
2023/03/16 06:16:24;;;;;;;3.20;1.08;;;;;;;6.84;47.61;100826.72;5030280;28;20473;-77
2023/03/16 06:18:50;;;;;;;3.63;1.05;;;;;;;6.69;47.88;100834.22;5030139;28;20424;-77
2023/03/16 06:21:16;;;;;;;2.53;1.10;;;;;;;7.00;47.35;100851.63;5029489;28;20382;-76
2023/03/16 06:23:41;;;;;;;1.57;0.90;;;;;;;7.01;47.21;100853.31;5029816;28;20439;-77
2023/03/16 06:26:07;;;;;;;7.40;3.30;;;;;;;6.63;47.31;100860.31;5031330;28;20486;-77
2023/03/16 06:28:32;;;;;;;3.90;1.00;;;;;;;6.57;47.72;100867.00;5018089;28;20430;-77
2023/03/16 06:30:58;;;;;;;4.63;1.07;;;;;;;6.77;47.16;100869.56;5031657;28;20394;-77
2023/03/16 06:33:24;;;;;;;1.57;1.07;;;;;;;6.43;47.69;100856.88;5031408;28;20370;-80
2023/03/16 06:35:50;;;;;;;3.60;1.60;;;;;;;6.66;47.38;100863.50;5033979;28;20374;-78
2023/03/16 06:38:17;;;;;;;2.42;1.10;;;;;;;6.74;47.58;100873.34;5031838;28;20878;-78
2023/03/16 06:40:42;;;;;;;4.15;1.20;;;;;;;6.94;46.92;100889.94;5038651;28;20454;-78
2023/03/16 06:43:08;;;;;;;1.40;1.00;;;;;;;6.83;47.47;100880.38;5028511;28;20390;-76
2023/03/16 06:45:34;;;;;;;3.60;1.20;;;;;;;7.25;46.86;100892.34;5033214;28;20374;-77
2023/03/16 06:47:59;;;;;;;4.30;2.70;;;;;;;7.19;46.37;100892.94;5016781;28;20396;-78
2023/03/16 06:50:26;;;;;;;3.27;1.20;;;;;;;7.08;46.46;100905.31;5017972;28;20383;-78
2023/03/16 06:52:51;;;;;;;5.05;2.53;;;;;;;7.16;46.60;100899.31;5015108;28;20506;-76
2023/03/16 06:55:17;;;;;;;2.07;1.70;;;;;;;7.06;46.68;100904.63;5030782;28;20477;-78
2023/03/16 06:57:42;;;;;;;2.57;1.60;;;;;;;7.24;46.84;100909.16;5032154;28;20427;-78
2023/03/16 07:00:12;;;;;;;3.22;0.93;;;;;;;7.12;46.85;100923.47;5024895;28;20388;-78
2023/03/16 07:02:39;;;;;;;3.70;1.23;;;;;;;6.70;47.71;100888.59;5025194;28;20786;-76
2023/03/16 07:05:06;;;;;;;4.20;0.97;;;;;;;6.50;47.64;100906.22;5034549;28;20383;-77
2023/03/16 07:07:32;;;;;;;3.75;1.25;;;;;;;6.61;48.04;100888.59;5035095;28;20890;-77
2023/03/16 07:09:58;;;;;;;3.00;1.90;;;;;;;6.92;47.40;100899.78;5034936;28;20408;-77
2023/03/16 07:12:24;;;;;;;5.50;1.77;;;;;;;6.85;47.61;100906.59;5048682;28;20425;-77
2023/03/16 07:14:50;;;;;;;2.20;1.30;;;;;;;6.89;47.33;100911.44;5027033;28;20731;-76
2023/03/16 07:17:15;;;;;;;3.45;1.38;;;;;;;7.04;47.27;100909.22;5032278;28;20412;-77
2023/03/16 07:19:42;;;;;;;4.95;2.20;;;;;;;7.06;46.76;100909.06;5022550;28;20442;-77
2023/03/16 07:22:08;;;;;;;2.58;1.27;;;;;;;6.95;47.06;100912.69;5017127;28;20794;-77
2023/03/16 07:24:34;;;;;;;3.20;1.30;;;;;;;7.04;47.07;100916.25;5023981;28;20419;-78
2023/03/16 07:27:00;;;;;;;4.53;1.10;;;;;;;7.04;46.72;100914.47;5021557;28;20500;-77
2023/03/16 07:29:27;;;;;;;3.30;1.70;;;;;;;7.02;46.59;100915.56;5034835;28;20814;-76
2023/03/16 07:31:53;;;;;;;4.38;2.15;;;;;;;6.85;46.92;100914.50;5035662;28;20743;-80
2023/03/16 07:34:18;;;;;;;6.47;1.10;;;;;;;7.03;46.76;100920.72;5024002;28;20388;-77
2023/03/16 07:36:44;;;;;;;3.05;1.48;;;;;;;7.10;46.70;100942.06;5027858;28;20387;-78
2023/03/16 07:39:13;;;;;;;6.60;1.87;;;;;;;6.89;46.68;100916.69;5035632;28;20383;-77
2023/03/16 07:41:38;;;;;;;2.45;0.98;;;;;;;7.02;46.47;100937.50;5043333;28;20376;-77
2023/03/16 07:44:04;;;;;;;3.40;1.20;;;;;;;7.17;46.41;100931.81;5032082;28;20380;-77
2023/03/16 07:46:31;;;;;;;2.85;2.05;;;;;;;7.19;46.50;100940.41;5030397;28;20424;-77
2023/03/16 07:48:57;;;;;;;2.05;1.55;;;;;;;7.18;46.40;100941.34;5028446;28;20392;-76
2023/03/16 07:51:23;;;;;;;4.33;2.00;;;;;;;7.37;46.03;100940.50;5036519;28;20458;-78
2023/03/16 07:53:48;;;;;;;3.53;2.40;;;;;;;7.51;46.01;100955.00;5035151;28;20417;-76
2023/03/16 07:56:14;;;;;;;5.23;1.77;;;;;;;7.57;45.56;100950.00;5033362;28;20425;-77
2023/03/16 07:58:40;;;;;;;3.08;1.83;;;;;;;7.48;45.48;100958.78;5035201;28;20378;-77
2023/03/16 08:01:06;;;;;;;3.53;1.60;;;;;;;7.45;45.93;100964.31;5032813;28;20471;-78
2023/03/16 08:03:31;;;;;;;7.53;1.60;;;;;;;7.39;46.43;100959.63;5034069;28;20867;-78
2023/03/16 08:05:57;;;;;;;2.90;1.67;;;;;;;7.23;47.02;100954.94;5034870;28;20764;-79
2023/03/16 08:08:22;;;;;;;5.65;1.88;;;;;;;7.42;46.26;100959.34;5023418;28;20919;-77
2023/03/16 08:10:53;;;;;;;3.00;1.13;;;;;;;7.09;47.21;100969.41;5020045;28;20453;-77
2023/03/16 08:13:19;;;;;;;2.08;1.27;;;;;;;6.94;47.29;100969.00;5048671;28;20925;-78
2023/03/16 08:15:46;;;;;;;2.05;1.13;;;;;;;6.92;47.52;100954.31;5033156;28;20418;-77
2023/03/16 08:18:11;;;;;;;3.33;1.40;;;;;;;7.18;46.90;100962.44;5016962;28;20489;-78
2023/03/16 08:20:37;;;;;;;2.47;1.75;;;;;;;7.12;47.07;100955.94;5031249;28;20461;-78
2023/03/16 08:23:02;;;;;;;6.77;3.33;;;;;;;7.16;47.37;100965.22;5017676;28;20380;-78
2023/03/16 08:25:28;;;;;;;4.60;1.40;;;;;;;7.48;46.82;100964.03;5000465;28;20430;-78
2023/03/16 08:27:54;;;;;;;2.78;1.38;;;;;;;7.78;45.93;100970.88;5028929;28;20400;-77
2023/03/16 08:30:21;;;;;;;4.57;1.33;;;;;;;7.66;46.33;100972.88;5014353;28;20403;-78
2023/03/16 08:32:46;;;;;;;2.17;1.30;;;;;;;7.57;46.41;100970.28;5012802;28;20462;-79
2023/03/16 08:35:15;;;;;;;2.53;1.40;;;;;;;7.30;46.99;100957.84;5013002;28;20857;-77
2023/03/16 08:37:41;;;;;;;3.83;1.40;;;;;;;7.37;47.28;100969.50;5013592;28;20475;-77
2023/03/16 08:40:09;;;;;;;2.75;1.52;;;;;;;7.64;46.98;100976.63;5014255;28;20479;-78
2023/03/16 08:42:37;;;;;;;5.00;2.23;;;;;;;7.80;46.27;100982.13;5013683;28;20384;-78
2023/03/16 08:45:08;;;;;;;4.65;3.08;;;;;;;8.00;46.17;100974.94;5013858;28;20400;-78
2023/03/16 08:47:41;;;;;;;4.07;1.85;;;;;;;7.72;46.50;100976.72;5013944;28;20729;-79
2023/03/16 08:50:08;;;;;;;5.00;2.58;;;;;;;7.61;46.85;100974.28;5012919;28;20403;-77
2023/03/16 08:52:35;;;;;;;6.18;2.00;;;;;;;7.57;46.58;100980.81;5012848;28;20380;-78
2023/03/16 08:55:03;;;;;;;7.70;1.58;;;;;;;7.95;46.27;100973.72;5014156;28;20558;-78
2023/03/16 08:57:29;;;;;;;2.80;1.98;;;;;;;8.14;46.54;100989.47;5014240;28;20436;-77
2023/03/16 08:59:55;;;;;;;5.45;1.77;;;;;;;8.33;46.08;100977.13;5012524;28;20415;-78
2023/03/16 09:02:21;;;;;;;2.63;1.37;;;;;;;8.55;45.11;100973.25;5013112;28;20576;-77
2023/03/16 09:04:46;;;;;;;2.17;1.77;;;;;;;8.23;45.45;100985.94;5011290;28;20441;-79
2023/03/16 09:07:12;;;;;;;3.73;2.13;;;;;;;8.56;44.82;100985.50;5012480;28;20431;-80
2023/03/16 09:09:38;;;;;;;5.47;3.30;;;;;;;8.60;44.74;100989.50;5011499;28;20388;-81
2023/03/16 09:12:05;;;;;;;2.85;1.45;;;;;;;8.67;44.57;100987.09;5013104;28;20404;-80
2023/03/16 09:14:30;;;;;;;1.98;1.15;;;;;;;8.15;45.24;100991.13;5013900;28;20497;-79
2023/03/16 09:16:56;;;;;;;4.78;1.58;;;;;;;8.24;45.41;100987.59;5016778;28;20388;-79
2023/03/16 09:19:21;;;;;;;3.57;2.17;;;;;;;8.42;45.08;101000.03;5033165;28;20387;-78
2023/03/16 09:21:47;;;;;;;2.83;1.20;;;;;;;8.44;44.82;101006.00;5034775;28;20388;-78
2023/03/16 09:24:13;;;;;;;4.93;1.88;;;;;;;8.61;44.61;100997.28;5032563;28;20408;-79
2023/03/16 09:26:38;;;;;;;4.17;2.53;;;;;;;9.05;43.73;100987.75;5015811;28;20415;-79
2023/03/16 09:29:05;;;;;;;3.35;2.25;;;;;;;8.99;43.00;100997.94;5012028;28;20892;-81
2023/03/16 09:31:32;;;;;;;5.88;3.30;;;;;;;8.60;44.20;101005.34;5013619;28;20542;-77
2023/03/16 09:33:58;;;;;;;4.13;1.70;;;;;;;8.43;43.98;101014.91;5013934;28;20384;-77
2023/03/16 09:36:24;;;;;;;2.15;1.75;;;;;;;8.51;44.58;101006.25;5013290;28;20385;-76
2023/03/16 09:38:50;;;;;;;5.00;2.75;;;;;;;8.86;43.75;101012.50;5012114;28;20380;-77
2023/03/16 09:41:21;;;;;;;4.50;2.67;;;;;;;8.72;43.87;101012.06;5011322;28;20380;-77
2023/03/16 09:43:52;;;;;;;3.47;2.50;;;;;;;8.51;44.58;101015.00;5011409;28;20726;-77
2023/03/16 09:46:33;;;;;;;5.10;2.72;;;;;;;8.61;44.75;101007.84;5011691;28;20860;-77
2023/03/16 09:48:59;;;;;;;1.95;1.33;;;;;;;8.77;43.95;101006.34;5012350;28;20407;-77
2023/03/16 09:51:50;;;;;;;2.90;1.23;;;;;;;8.44;44.66;101021.03;5011515;28;20388;-77
2023/03/16 09:54:55;;;;;;;2.58;1.65;;;;;;;8.57;44.74;101032.06;5009115;28;20467;-76
2023/03/16 09:57:30;;;;;;;2.72;1.77;;;;;;;8.45;44.32;101022.69;5009073;28;20899;-77
2023/03/16 10:00:01;;;;;;;6.95;1.50;;;;;;;8.16;44.48;101027.13;5009429;28;20387;-78
2023/03/16 10:02:45;;;;;;;4.40;2.65;;;;;;;8.20;45.01;101025.03;5010107;28;20391;-79
2023/03/16 10:05:13;;;;;;;3.60;1.70;;;;;;;8.61;44.61;101026.34;5011027;28;20737;-77
2023/03/16 10:07:42;;;;;;;3.22;2.00;;;;;;;8.35;45.02;101020.06;5008427;28;20816;-79
2023/03/16 10:10:41;;;;;;;1.90;1.47;;;;;;;8.60;44.10;101022.03;5010528;28;20381;-78
2023/03/16 10:13:15;;;;;;;2.10;1.40;;;;;;;8.69;44.36;101030.03;5010278;28;20479;-78
2023/03/16 10:15:44;;;;;;;2.97;1.88;;;;;;;8.87;44.09;101017.66;5010400;28;20380;-77
2023/03/16 10:18:16;;;;;;;3.47;1.65;;;;;;;8.89;44.69;101023.63;5011790;28;20380;-78
2023/03/16 10:20:44;;;;;;;4.13;1.65;;;;;;;8.92;43.89;101028.63;5019058;28;20479;-76
2023/03/16 10:23:21;;;;;;;6.05;3.40;;;;;;;9.08;43.82;101035.03;5019080;28;20726;-78
2023/03/16 10:25:51;;;;;;;2.03;1.50;;;;;;;9.04;43.80;101031.88;5018029;28;20472;-78
2023/03/16 10:28:31;;;;;;;4.40;2.30;;;;;;;9.14;43.88;101035.25;5019645;28;20520;-77
2023/03/16 10:30:59;;;;;;;3.10;2.08;;;;;;;8.96;43.72;101029.97;5017283;28;20384;-77
2023/03/16 10:33:35;;;;;;;6.03;1.70;;;;;;;8.82;43.79;101046.34;5019611;28;21063;-77
2023/03/16 10:36:23;;;;;;;5.13;2.47;;;;;;;8.70;44.12;101035.19;5019692;28;20404;-76
2023/03/16 10:38:56;;;;;;;3.80;1.97;;;;;;;8.48;44.67;101041.72;5020493;28;20387;-79
2023/03/16 10:41:32;;;;;;;4.03;2.47;;;;;;;8.79;44.56;101041.38;5018135;28;20741;-77
2023/03/16 10:44:06;;;;;;;4.10;2.60;;;;;;;8.91;44.04;101034.91;5020339;28;20383;-77
2023/03/16 10:46:36;;;;;;;3.83;2.38;;;;;;;8.86;44.64;101044.25;5018658;28;20384;-76
2023/03/16 10:49:01;;;;;;;2.40;1.70;;;;;;;8.89;44.09;101041.31;5019848;28;20403;-77
2023/03/16 10:51:31;;;;;;;3.77;2.23;;;;;;;8.61;44.54;101041.38;5017580;28;20456;-77
2023/03/16 10:54:43;;;;;;;2.90;2.03;;;;;;;8.69;44.34;101033.50;5018007;28;20421;-77
2023/03/16 10:57:15;;;;;;;2.72;2.05;;;;;;;8.69;44.60;101037.97;5016748;28;20416;-77
2023/03/16 10:59:48;;;;;;;3.78;1.75;;;;;;;8.63;44.65;101043.88;5018213;28;20467;-77
2023/03/16 11:02:22;;;;;;;4.18;1.77;;;;;;;8.87;44.02;101032.69;5018353;28;20384;-76
2023/03/16 11:04:48;;;;;;;3.07;2.10;;;;;;;8.69;44.42;101043.25;5018189;28;20384;-77
2023/03/16 11:07:17;;;;;;;6.25;2.15;;;;;;;8.75;44.25;101045.28;5019717;28;20418;-77
2023/03/16 11:09:43;;;;;;;3.15;2.38;;;;;;;8.87;44.58;101051.19;5017988;28;20379;-76
2023/03/16 11:12:31;;;;;;;4.38;3.00;;;;;;;8.95;44.30;101049.47;5017712;28;20419;-78
2023/03/16 11:15:03;;;;;;;3.50;2.25;;;;;;;8.88;44.35;101037.00;5017523;28;20900;-76
2023/03/16 11:17:51;;;;;;;5.97;2.95;;;;;;;8.91;44.40;101041.97;5016885;28;20943;-79
2023/03/16 11:20:22;;;;;;;4.22;2.67;;;;;;;8.74;44.77;101044.47;5018698;28;20380;-77
2023/03/16 11:22:48;;;;;;;7.35;2.40;;;;;;;8.97;44.30;101052.78;5017446;28;20406;-78
2023/03/16 11:25:45;;;;;;;3.00;1.70;;;;;;;8.61;44.94;101058.03;5026440;28;20372;-77
2023/03/16 11:28:23;;;;;;;6.13;2.80;;;;;;;8.56;45.72;101040.97;5018456;28;20466;-78
2023/03/16 11:30:58;;;;;;;3.13;2.47;;;;;;;8.80;44.97;101035.09;5017237;28;20457;-78
2023/03/16 11:33:26;;;;;;;3.60;2.67;;;;;;;8.88;45.49;101035.19;5014938;28;20376;-77
2023/03/16 11:36:05;;;;;;;3.85;2.20;;;;;;;8.45;46.12;101057.03;5016411;28;20387;-77
2023/03/16 11:38:49;;;;;;;5.70;2.63;;;;;;;8.47;46.54;101068.28;5016089;28;20413;-78
2023/03/16 11:41:26;;;;;;;5.43;2.80;;;;;;;7.89;47.82;101059.59;5014239;28;20803;-76